createdAt,value
2019-04-03T00:02:29.610Z,16.73
2019-04-03T00:05:35.478Z,15.50
2019-04-03T00:08:40.855Z,16.00
2019-04-03T00:11:45.783Z,17.57
2019-04-03T00:14:50.873Z,15.37
2019-04-03T00:17:55.723Z,14.67
2019-04-03T00:21:00.873Z,14.50
2019-04-03T00:24:24.744Z,14.40
2019-04-03T00:27:29.826Z,14.50
2019-04-03T00:30:34.903Z,15.83
2019-04-03T00:33:40.146Z,16.00
2019-04-03T00:36:45.169Z,15.40
2019-04-03T00:39:50.274Z,16.67
2019-04-03T00:42:55.296Z,17.03
2019-04-03T00:46:00.440Z,16.10
2019-04-03T00:49:05.388Z,16.20
2019-04-03T00:52:10.585Z,15.57
2019-04-03T00:55:15.667Z,15.33
2019-04-03T00:58:42.197Z,14.90
2019-04-03T01:01:47.405Z,15.17
2019-04-03T01:04:52.463Z,16.07
2019-04-03T01:08:00.164Z,15.10
2019-04-03T01:11:05.474Z,16.03
2019-04-03T01:14:31.332Z,16.40
2019-04-03T01:17:36.127Z,15.73
2019-04-03T01:20:41.114Z,17.50
2019-04-03T01:23:46.366Z,18.07
2019-04-03T01:26:51.426Z,19.13
2019-04-03T01:29:56.645Z,17.33
2019-04-03T01:33:01.511Z,17.40
2019-04-03T01:36:06.438Z,17.00
2019-04-03T01:39:11.634Z,15.77
2019-04-03T01:42:16.694Z,17.07
2019-04-03T01:45:21.975Z,16.10
2019-04-03T01:48:28.338Z,16.33
2019-04-03T01:51:33.393Z,15.80
2019-04-03T01:54:38.295Z,16.33
2019-04-03T01:57:43.270Z,16.27
2019-04-03T02:00:48.233Z,16.70
2019-04-03T02:03:53.208Z,15.20
2019-04-03T02:06:58.483Z,15.60
2019-04-03T02:10:03.479Z,16.00
2019-04-03T02:13:08.264Z,15.90
2019-04-03T02:16:12.974Z,15.03
2019-04-03T02:19:17.836Z,14.90
2019-04-03T02:22:22.742Z,16.83
2019-04-03T02:25:27.870Z,17.17
2019-04-03T02:28:34.925Z,15.73
2019-04-03T02:31:39.743Z,15.20
2019-04-03T02:34:44.777Z,17.67
2019-04-03T02:37:50.693Z,17.17
2019-04-03T02:40:56.033Z,15.43
2019-04-03T02:44:01.253Z,16.33
2019-04-03T02:47:06.229Z,17.40
2019-04-03T02:50:13.935Z,15.30
2019-04-03T02:53:18.062Z,15.63
2019-04-03T02:56:23.050Z,15.53
2019-04-03T02:59:28.058Z,16.83
2019-04-03T03:02:33.282Z,15.57
2019-04-03T03:05:38.677Z,16.00
2019-04-03T03:08:44.095Z,15.13
2019-04-03T03:11:49.354Z,15.53
2019-04-03T03:14:54.973Z,15.80
2019-04-03T03:18:00.710Z,14.90
2019-04-03T03:21:06.283Z,15.33
2019-04-03T03:24:12.234Z,15.40
2019-04-03T03:27:17.918Z,15.40
2019-04-03T03:30:42.248Z,16.47
2019-04-03T03:33:36.298Z,16.00
2019-04-03T03:36:39.327Z,15.87
2019-04-03T03:39:44.991Z,15.23
2019-04-03T03:42:50.807Z,16.27
2019-04-03T03:45:56.000Z,14.47
2019-04-03T03:49:00.973Z,17.07
2019-04-03T03:52:06.508Z,15.53
2019-04-03T03:55:11.550Z,14.97
2019-04-03T03:58:16.563Z,15.80
2019-04-03T04:01:22.029Z,14.80
2019-04-03T04:04:27.286Z,14.73
2019-04-03T04:07:35.977Z,15.67
2019-04-03T04:10:40.149Z,15.93
2019-04-03T04:13:48.739Z,15.93
2019-04-03T04:16:52.274Z,16.10
2019-04-03T04:19:57.831Z,16.90
2019-04-03T04:23:03.170Z,15.97
2019-04-03T04:26:08.493Z,18.30
2019-04-03T04:29:14.042Z,15.30
2019-04-03T04:32:19.057Z,15.17
2019-04-03T04:35:24.195Z,16.97
2019-04-03T04:38:29.161Z,17.43
2019-04-03T04:41:34.274Z,15.80
2019-04-03T04:44:41.189Z,16.10
2019-04-03T04:47:46.548Z,16.40
2019-04-03T04:50:54.239Z,16.20
2019-04-03T04:53:59.509Z,17.03
2019-04-03T04:57:08.254Z,17.30
2019-04-03T05:00:13.671Z,16.87
2019-04-03T05:03:21.121Z,17.13
2019-04-03T05:06:28.584Z,17.50
2019-04-03T05:09:34.864Z,16.67
2019-04-03T05:12:42.615Z,17.17
2019-04-03T05:15:46.377Z,17.60
2019-04-03T05:18:51.576Z,16.67
2019-04-03T05:21:56.666Z,18.63
2019-04-03T05:25:02.099Z,16.80
2019-04-03T05:28:07.187Z,16.73
2019-04-03T05:31:12.155Z,17.63
2019-04-03T05:34:17.258Z,17.93
2019-04-03T05:37:23.040Z,16.43
2019-04-03T05:40:28.119Z,16.30
2019-04-03T05:43:33.439Z,17.50
2019-04-03T05:46:38.357Z,17.87
2019-04-03T05:49:46.246Z,17.30
2019-04-03T05:52:50.165Z,18.60
2019-04-03T05:55:55.169Z,17.60
2019-04-03T05:59:02.262Z,17.37
2019-04-03T06:02:14.634Z,17.63
2019-04-03T06:05:14.480Z,16.10
2019-04-03T06:08:20.679Z,17.13
2019-04-03T06:11:25.671Z,18.37
2019-04-03T06:14:30.834Z,18.23
2019-04-03T06:17:35.866Z,19.57
2019-04-03T06:20:42.588Z,17.50
2019-04-03T06:23:47.539Z,18.40
2019-04-03T06:26:52.658Z,19.60
2019-04-03T06:29:57.668Z,20.30
2019-04-03T06:33:02.698Z,17.67
2019-04-03T06:36:07.611Z,20.30
2019-04-03T06:39:12.782Z,18.03
2019-04-03T06:42:17.789Z,17.50
2019-04-03T06:45:24.031Z,19.03
2019-04-03T06:48:29.716Z,20.23
2019-04-03T06:51:34.581Z,18.23
2019-04-03T06:54:39.739Z,20.07
2019-04-03T06:57:44.685Z,19.70
2019-04-03T07:00:50.290Z,20.50
2019-04-03T07:03:57.078Z,20.47
2019-04-03T07:07:02.211Z,18.23
2019-04-03T07:10:09.137Z,20.03
2019-04-03T07:13:15.243Z,18.50
2019-04-03T07:16:20.404Z,19.47
2019-04-03T07:19:25.297Z,20.57
2019-04-03T07:22:30.408Z,20.93
2019-04-03T07:25:35.826Z,21.07
2019-04-03T07:28:42.287Z,20.40
2019-04-03T07:31:47.451Z,21.30
2019-04-03T07:34:52.627Z,22.47
2019-04-03T07:37:57.572Z,22.30
2019-04-03T07:41:02.952Z,22.43
2019-04-03T07:44:07.850Z,20.73
2019-04-03T07:47:12.955Z,21.50
2019-04-03T07:50:18.099Z,23.63
2019-04-03T07:53:23.284Z,23.13
2019-04-03T07:56:28.210Z,21.70
2019-04-03T07:59:33.837Z,23.10
2019-04-03T08:02:45.393Z,23.13
2019-04-03T08:05:47.395Z,23.73
2019-04-03T08:09:05.827Z,25.03
2019-04-03T08:11:59.194Z,22.00
2019-04-03T08:15:04.697Z,22.33
2019-04-03T08:18:09.785Z,24.77
2019-04-03T08:21:15.046Z,23.50
2019-04-03T08:24:20.049Z,24.00
2019-04-03T08:27:24.933Z,25.83
2019-04-03T08:30:29.804Z,23.27
2019-04-03T08:33:34.780Z,22.80
2019-04-03T08:37:01.266Z,22.47
2019-04-03T08:40:05.862Z,23.10
2019-04-03T08:43:11.130Z,22.70
2019-04-03T08:46:16.114Z,20.97
2019-04-03T08:49:21.311Z,20.60
2019-04-03T08:52:26.328Z,20.20
2019-04-03T08:55:31.810Z,20.87
2019-04-03T08:58:37.111Z,19.90
2019-04-03T09:01:42.515Z,20.20
2019-04-03T09:04:48.065Z,21.27
2019-04-03T09:07:56.147Z,19.73
2019-04-03T09:11:00.783Z,19.07
2019-04-03T09:14:05.995Z,19.30
2019-04-03T09:17:11.154Z,19.17
2019-04-03T09:20:16.533Z,20.00
2019-04-03T09:23:21.424Z,20.03
2019-04-03T09:26:27.886Z,19.67
2019-04-03T09:29:33.145Z,18.97
2019-04-03T09:32:38.337Z,18.87
2019-04-03T09:35:43.423Z,20.00
2019-04-03T09:38:48.881Z,19.30
2019-04-03T09:41:54.052Z,22.00
2019-04-03T09:44:59.003Z,18.80
2019-04-03T09:48:05.613Z,20.50
2019-04-03T09:51:10.661Z,19.80
2019-04-03T09:54:16.229Z,20.10
2019-04-03T09:57:21.350Z,21.50
2019-04-03T10:00:27.181Z,20.87
2019-04-03T10:03:32.263Z,20.77
2019-04-03T10:06:37.561Z,20.00
2019-04-03T10:09:43.992Z,19.73
2019-04-03T10:12:49.239Z,19.10
2019-04-03T10:15:54.420Z,18.30
2019-04-03T10:18:59.295Z,17.63
2019-04-03T10:22:04.509Z,19.00
2019-04-03T10:25:09.932Z,19.90
2019-04-03T10:28:15.320Z,19.37
2019-04-03T10:31:23.316Z,18.40
2019-04-03T10:34:27.005Z,16.60
2019-04-03T10:37:32.246Z,15.47
2019-04-03T10:40:46.563Z,12.60
2019-04-03T10:43:52.227Z,12.20
2019-04-03T10:46:57.321Z,10.03
2019-04-03T10:50:05.933Z,8.63
2019-04-03T10:53:11.310Z,8.00
2019-04-03T10:56:16.649Z,7.83
2019-04-03T10:59:21.626Z,7.60
2019-04-03T11:02:26.682Z,7.33
2019-04-03T11:05:31.607Z,8.23
2019-04-03T11:08:36.644Z,8.97
2019-04-03T11:11:43.500Z,8.77
2019-04-03T11:14:48.472Z,9.10
2019-04-03T11:17:53.650Z,9.50
2019-04-03T11:20:59.498Z,9.20
2019-04-03T11:24:06.607Z,8.23
2019-04-03T11:27:11.390Z,7.60
2019-04-03T11:30:20.203Z,9.10
2019-04-03T11:33:24.566Z,8.90
2019-04-03T11:36:31.842Z,8.53
2019-04-03T11:39:37.495Z,8.73
2019-04-03T11:42:43.400Z,8.60
2019-04-03T11:45:49.577Z,9.90
2019-04-03T11:48:54.611Z,9.80
2019-04-03T11:52:01.506Z,9.10
2019-04-03T11:55:09.974Z,9.17
2019-04-03T11:58:14.199Z,8.33
2019-04-03T12:01:19.781Z,9.20
2019-04-03T12:04:25.019Z,9.63
2019-04-03T12:07:30.833Z,9.60
2019-04-03T12:10:35.944Z,10.00
2019-04-03T12:13:41.092Z,9.00
2019-04-03T12:16:46.113Z,9.87
2019-04-03T12:19:50.938Z,9.73
2019-04-03T12:22:56.552Z,9.37
2019-04-03T12:26:01.604Z,10.17
2019-04-03T12:29:07.712Z,9.97
2019-04-03T12:32:13.407Z,9.70
2019-04-03T12:35:18.341Z,8.83
2019-04-03T12:38:23.413Z,8.90
2019-04-03T12:41:28.829Z,8.07
2019-04-03T12:44:33.554Z,9.50
2019-04-03T12:47:38.400Z,10.57
2019-04-03T12:50:43.595Z,7.80
2019-04-03T12:53:49.131Z,8.60
2019-04-03T12:56:54.068Z,8.17
2019-04-03T12:59:59.063Z,8.00
2019-04-03T13:03:04.596Z,7.30
2019-04-03T13:06:10.339Z,7.10
2019-04-03T13:09:16.188Z,7.67
2019-04-03T13:12:24.512Z,6.70
2019-04-03T13:15:28.450Z,6.50
2019-04-03T13:18:33.439Z,6.50
2019-04-03T13:21:39.788Z,6.93
2019-04-03T13:24:47.395Z,6.47
2019-04-03T13:27:51.951Z,6.87
2019-04-03T13:30:57.434Z,6.57
2019-04-03T13:34:02.896Z,6.20
2019-04-03T13:37:07.847Z,5.37
2019-04-03T13:40:13.439Z,5.90
2019-04-03T13:43:20.518Z,5.13
2019-04-03T13:46:24.941Z,5.37
2019-04-03T13:49:30.853Z,5.90
2019-04-03T13:52:40.950Z,5.40
2019-04-03T13:55:43.335Z,5.63
2019-04-03T13:58:48.622Z,4.83
2019-04-03T14:01:54.158Z,5.90
2019-04-03T14:04:59.594Z,5.10
2019-04-03T14:08:06.785Z,4.80
2019-04-03T14:11:11.770Z,4.20
2019-04-03T14:14:16.906Z,4.60
2019-04-03T14:17:22.290Z,4.87
2019-04-03T14:20:27.861Z,5.57
2019-04-03T14:23:34.933Z,4.63
2019-04-03T14:26:39.848Z,6.97
2019-04-03T14:29:44.983Z,5.60
2019-04-03T14:32:52.553Z,6.00
2019-04-03T14:35:56.795Z,5.23
2019-04-03T14:39:03.713Z,4.93
2019-04-03T14:42:09.544Z,5.47
2019-04-03T14:45:15.243Z,9.50
2019-04-03T14:48:20.843Z,9.97
2019-04-03T14:51:26.174Z,8.80
2019-04-03T14:54:31.779Z,7.10
2019-04-03T14:57:37.187Z,4.60
2019-04-03T15:00:42.349Z,4.97
2019-04-03T15:03:47.288Z,3.67
2019-04-03T15:07:02.156Z,4.07
2019-04-03T15:10:00.294Z,4.10
2019-04-03T15:13:05.809Z,5.60
2019-04-03T15:16:11.018Z,4.50
2019-04-03T15:19:16.147Z,4.90
2019-04-03T15:22:21.297Z,4.73
2019-04-03T15:25:26.369Z,3.80
2019-04-03T15:28:31.860Z,4.13
2019-04-03T15:31:37.445Z,4.83
2019-04-03T15:34:42.952Z,4.07
2019-04-03T15:37:48.037Z,4.53
2019-04-03T15:41:11.745Z,5.00
2019-04-03T15:44:19.951Z,4.20
2019-04-03T15:47:35.317Z,4.70
2019-04-03T15:50:33.322Z,4.70
2019-04-03T15:53:37.491Z,4.80
2019-04-03T15:56:44.885Z,4.77
2019-04-03T15:59:51.696Z,4.83
2019-04-03T16:02:55.940Z,4.40
2019-04-03T16:06:03.523Z,4.90
2019-04-03T16:09:09.558Z,4.30
2019-04-03T16:12:14.892Z,4.40
2019-04-03T16:15:20.180Z,4.70
2019-04-03T16:18:26.338Z,5.10
2019-04-03T16:21:31.656Z,5.60
2019-04-03T16:24:37.092Z,5.10
2019-04-03T16:27:42.263Z,5.90
2019-04-03T16:30:52.194Z,6.43
2019-04-03T16:33:55.151Z,5.50
2019-04-03T16:37:00.412Z,6.80
2019-04-03T16:40:06.724Z,7.43
2019-04-03T16:43:12.025Z,6.57
2019-04-03T16:46:17.295Z,7.33
2019-04-03T16:49:23.303Z,7.30
2019-04-03T16:52:30.264Z,6.83
2019-04-03T16:55:35.394Z,8.33
2019-04-03T16:58:40.433Z,7.57
2019-04-03T17:01:46.335Z,7.77
2019-04-03T17:04:52.556Z,7.20
2019-04-03T17:07:58.123Z,7.43
2019-04-03T17:11:03.302Z,7.60
2019-04-03T17:14:08.951Z,8.73
2019-04-03T17:17:14.902Z,7.47
2019-04-03T17:20:22.563Z,8.30
2019-04-03T17:23:27.796Z,7.80
2019-04-03T17:26:32.992Z,8.03
2019-04-03T17:29:38.609Z,8.80
2019-04-03T17:32:43.789Z,7.23
2019-04-03T17:35:48.994Z,7.70
2019-04-03T17:38:54.089Z,7.43
2019-04-03T17:41:59.040Z,7.30
2019-04-03T17:45:04.817Z,7.73
2019-04-03T17:48:09.876Z,8.67
2019-04-03T17:51:15.009Z,8.43
2019-04-03T17:54:20.166Z,9.23
2019-04-03T17:57:25.512Z,8.80
2019-04-03T18:00:30.653Z,9.63
2019-04-03T18:03:35.657Z,8.43
2019-04-03T18:06:40.563Z,8.53
2019-04-03T18:09:45.658Z,8.77
2019-04-03T18:12:53.922Z,8.40
2019-04-03T18:15:59.444Z,7.37
2019-04-03T18:19:04.972Z,7.03
2019-04-03T18:22:10.687Z,6.73
2019-04-03T18:25:16.090Z,6.90
2019-04-03T18:28:21.502Z,7.30
2019-04-03T18:31:26.444Z,8.27
2019-04-03T18:34:31.490Z,7.77
2019-04-03T18:37:40.654Z,6.97
2019-04-03T18:40:46.414Z,7.77
2019-04-03T18:43:54.184Z,7.73
2019-04-03T18:46:58.637Z,7.43
2019-04-03T18:50:04.499Z,7.90
2019-04-03T18:53:10.269Z,8.30
2019-04-03T18:56:16.079Z,7.70
2019-04-03T18:59:21.134Z,8.13
2019-04-03T19:02:26.509Z,8.07
2019-04-03T19:05:32.921Z,8.30
2019-04-03T19:08:37.888Z,7.40
2019-04-03T19:11:43.030Z,7.67
2019-04-03T19:14:48.071Z,8.23
2019-04-03T19:18:00.015Z,10.03
2019-04-03T19:20:59.876Z,8.00
2019-04-03T19:24:04.888Z,8.67
2019-04-03T19:27:10.186Z,7.97
2019-04-03T19:30:15.650Z,7.30
2019-04-03T19:33:20.850Z,7.37
2019-04-03T19:36:25.960Z,8.40
2019-04-03T19:39:31.117Z,9.60
2019-04-03T19:42:36.010Z,10.50
2019-04-03T19:45:41.085Z,8.87
2019-04-03T19:48:46.315Z,8.17
2019-04-03T19:51:51.436Z,8.03
2019-04-03T19:54:56.503Z,9.63
2019-04-03T19:58:01.950Z,9.83
2019-04-03T20:01:08.136Z,9.87
2019-04-03T20:04:15.791Z,9.40
2019-04-03T20:07:19.929Z,10.00
2019-04-03T20:10:25.126Z,10.40
2019-04-03T20:13:30.215Z,11.17
2019-04-03T20:16:35.299Z,10.17
2019-04-03T20:19:40.705Z,9.27
2019-04-03T20:22:45.664Z,10.63
2019-04-03T20:25:50.580Z,11.57
2019-04-03T20:28:57.447Z,10.87
2019-04-03T20:32:02.379Z,9.67
2019-04-03T20:35:09.741Z,10.70
2019-04-03T20:38:14.932Z,10.60
2019-04-03T20:41:20.050Z,10.53
2019-04-03T20:44:25.059Z,9.90
2019-04-03T20:47:30.269Z,10.80
2019-04-03T20:50:36.031Z,10.43
2019-04-03T20:53:42.378Z,10.43
2019-04-03T20:56:57.191Z,11.83
2019-04-03T21:00:02.874Z,9.87
2019-04-03T21:03:05.457Z,10.20
2019-04-03T21:06:10.372Z,10.40
2019-04-03T21:09:15.484Z,11.23
2019-04-03T21:12:20.403Z,10.53
2019-04-03T21:15:25.392Z,14.57
2019-04-03T21:18:30.921Z,11.10
2019-04-03T21:21:35.817Z,10.63
2019-04-03T21:24:40.815Z,10.47
2019-04-03T21:27:45.911Z,10.70
2019-04-03T21:30:50.880Z,11.00
2019-04-03T21:33:55.818Z,11.27
2019-04-03T21:37:00.791Z,11.13
2019-04-03T21:40:16.951Z,10.73
2019-04-03T21:43:22.050Z,10.63
2019-04-03T21:46:27.264Z,11.77
2019-04-03T21:49:32.714Z,13.27
2019-04-03T21:52:37.885Z,11.70
2019-04-03T21:55:43.003Z,11.67
2019-04-03T21:58:50.921Z,10.73
2019-04-03T22:01:56.264Z,12.00
2019-04-03T22:05:07.196Z,10.10
2019-04-03T22:08:11.952Z,11.47
2019-04-03T22:11:16.890Z,11.67
2019-04-03T22:14:21.972Z,11.90
2019-04-03T22:17:26.967Z,11.40
2019-04-03T22:20:31.853Z,11.53
2019-04-03T22:23:37.120Z,11.93
2019-04-03T22:26:42.160Z,11.27
2019-04-03T22:29:47.090Z,11.40
2019-04-03T22:32:52.230Z,12.23
2019-04-03T22:35:57.193Z,12.00
2019-04-03T22:39:02.313Z,11.20
2019-04-03T22:42:07.478Z,12.83
2019-04-03T22:45:12.641Z,11.80
2019-04-03T22:48:17.820Z,12.43
2019-04-03T22:51:22.844Z,11.47
2019-04-03T22:54:28.023Z,11.57
2019-04-03T22:57:33.280Z,10.90
2019-04-03T23:00:38.153Z,14.23
2019-04-03T23:03:43.320Z,11.20
2019-04-03T23:06:49.672Z,11.60
2019-04-03T23:09:56.596Z,12.17
2019-04-03T23:13:04.748Z,11.33
2019-04-03T23:16:09.604Z,12.70
2019-04-03T23:19:15.887Z,10.57
2019-04-03T23:22:21.788Z,10.37
2019-04-03T23:25:29.434Z,11.30
2019-04-03T23:28:34.001Z,13.40
2019-04-03T23:31:39.930Z,11.70
2019-04-03T23:34:44.941Z,12.50
2019-04-03T23:37:49.985Z,12.13
2019-04-03T23:40:55.154Z,11.47
2019-04-03T23:44:00.167Z,11.53
2019-04-03T23:47:05.165Z,10.00
2019-04-03T23:50:10.090Z,11.67
2019-04-03T23:53:14.985Z,11.60
2019-04-03T23:56:19.955Z,12.80
2019-04-03T23:59:27.146Z,10.90
